sensor_id;sensor_type;location;lat;lon;timestamp;pressure;altitude;pressure_sealevel;temperature;humidity
49297;BME280;35163;48.878;18.040;2023-04-06T00:00:53;98627.66;;;2.15;41.22
49297;BME280;35163;48.878;18.040;2023-04-06T00:03:19;98625.97;;;2.16;41.92
49297;BME280;35163;48.878;18.040;2023-04-06T00:05:47;98624.25;;;2.15;42.06
49297;BME280;35163;48.878;18.040;2023-04-06T00:08:14;98627.66;;;2.12;41.47
49297;BME280;35163;48.878;18.040;2023-04-06T00:10:41;98616.56;;;2.05;42.20
49297;BME280;35163;48.878;18.040;2023-04-06T00:13:07;98627.66;;;2.09;41.96
49297;BME280;35163;48.878;18.040;2023-04-06T00:15:34;98618.25;;;2.08;42.17
49297;BME280;35163;48.878;18.040;2023-04-06T00:18:02;98622.47;;;2.00;42.25
49297;BME280;35163;48.878;18.040;2023-04-06T00:20:29;98610.50;;;1.92;42.43
49297;BME280;35163;48.878;18.040;2023-04-06T00:22:56;98607.94;;;1.89;42.81
49297;BME280;35163;48.878;18.040;2023-04-06T00:25:23;98610.47;;;1.86;42.05
49297;BME280;35163;48.878;18.040;2023-04-06T00:27:49;98609.66;;;1.89;42.46
49297;BME280;35163;48.878;18.040;2023-04-06T00:30:16;98604.50;;;1.86;42.95
49297;BME280;35163;48.878;18.040;2023-04-06T00:32:43;98605.41;;;1.89;43.24
49297;BME280;35163;48.878;18.040;2023-04-06T00:35:09;98600.34;;;1.96;43.40
49297;BME280;35163;48.878;18.040;2023-04-06T00:37:37;98600.28;;;1.89;44.10
49297;BME280;35163;48.878;18.040;2023-04-06T00:40:04;98599.41;;;1.84;43.52
49297;BME280;35163;48.878;18.040;2023-04-06T00:42:31;98597.72;;;1.83;43.17
49297;BME280;35163;48.878;18.040;2023-04-06T00:44:59;98599.38;;;1.81;43.25
49297;BME280;35163;48.878;18.040;2023-04-06T00:47:27;98597.69;;;1.80;42.81
49297;BME280;35163;48.878;18.040;2023-04-06T00:49:56;98596.03;;;1.87;43.04
49297;BME280;35163;48.878;18.040;2023-04-06T00:52:23;98597.72;;;1.83;42.67
49297;BME280;35163;48.878;18.040;2023-04-06T00:54:50;98590.94;;;1.88;42.07
49297;BME280;35163;48.878;18.040;2023-04-06T00:57:17;98598.63;;;1.94;42.91
49297;BME280;35163;48.878;18.040;2023-04-06T00:59:44;98601.19;;;1.96;42.33
49297;BME280;35163;48.878;18.040;2023-04-06T01:02:11;98594.31;;;1.87;43.84
49297;BME280;35163;48.878;18.040;2023-04-06T01:04:39;98595.19;;;1.88;44.21
49297;BME280;35163;48.878;18.040;2023-04-06T01:07:06;98598.53;;;1.79;44.80
49297;BME280;35163;48.878;18.040;2023-04-06T01:09:32;98602.72;;;1.74;44.39
49297;BME280;35163;48.878;18.040;2023-04-06T01:11:59;98601.88;;;1.72;43.86
49297;BME280;35163;48.878;18.040;2023-04-06T01:14:26;98604.47;;;1.75;43.95
49297;BME280;35163;48.878;18.040;2023-04-06T01:16:53;98610.34;;;1.67;44.69
49297;BME280;35163;48.878;18.040;2023-04-06T01:19:21;98606.91;;;1.62;44.16
49297;BME280;35163;48.878;18.040;2023-04-06T01:21:48;98600.13;;;1.61;44.19
49297;BME280;35163;48.878;18.040;2023-04-06T01:24:16;98597.56;;;1.64;44.16
49297;BME280;35163;48.878;18.040;2023-04-06T01:26:43;98597.56;;;1.61;43.78
49297;BME280;35163;48.878;18.040;2023-04-06T01:29:11;98595.94;;;1.71;43.49
49297;BME280;35163;48.878;18.040;2023-04-06T01:31:38;98591.63;;;1.65;44.79
49297;BME280;35163;48.878;18.040;2023-04-06T01:34:05;98596.69;;;1.59;44.94
49297;BME280;35163;48.878;18.040;2023-04-06T01:36:32;98599.25;;;1.61;44.08
49297;BME280;35163;48.878;18.040;2023-04-06T01:38:59;98592.47;;;1.60;44.66
49297;BME280;35163;48.878;18.040;2023-04-06T01:41:26;98595.84;;;1.60;43.96
49297;BME280;35163;48.878;18.040;2023-04-06T01:43:53;98596.66;;;1.53;45.23
49297;BME280;35163;48.878;18.040;2023-04-06T01:46:21;98600.03;;;1.52;44.99
49297;BME280;35163;48.878;18.040;2023-04-06T01:48:48;98602.56;;;1.52;45.10
49297;BME280;35163;48.878;18.040;2023-04-06T01:51:15;98599.16;;;1.50;44.66
49297;BME280;35163;48.878;18.040;2023-04-06T01:53:42;98588.13;;;1.51;44.00
49297;BME280;35163;48.878;18.040;2023-04-06T01:56:09;98583.84;;;1.47;45.14
49297;BME280;35163;48.878;18.040;2023-04-06T01:58:35;98592.34;;;1.45;44.44
49297;BME280;35163;48.878;18.040;2023-04-06T02:01:02;98595.72;;;1.44;44.99
49297;BME280;35163;48.878;18.040;2023-04-06T02:03:29;98594.00;;;1.43;44.77
49297;BME280;35163;48.878;18.040;2023-04-06T02:05:57;98594.88;;;1.45;44.80
49297;BME280;35163;48.878;18.040;2023-04-06T02:08:26;98593.13;;;1.41;45.29
49297;BME280;35163;48.878;18.040;2023-04-06T02:10:53;98589.81;;;1.49;45.45
49297;BME280;35163;48.878;18.040;2023-04-06T02:13:20;98592.31;;;1.42;44.34
49297;BME280;35163;48.878;18.040;2023-04-06T02:15:46;98588.03;;;1.41;44.90
49297;BME280;35163;48.878;18.040;2023-04-06T02:18:13;98588.03;;;1.41;45.59
49297;BME280;35163;48.878;18.040;2023-04-06T02:20:39;98587.16;;;1.36;45.37
49297;BME280;35163;48.878;18.040;2023-04-06T02:23:06;98588.03;;;1.38;45.27
49297;BME280;35163;48.878;18.040;2023-04-06T02:25:33;98598.19;;;1.37;44.62
49297;BME280;35163;48.878;18.040;2023-04-06T02:28:02;98588.00;;;1.35;45.49
49297;BME280;35163;48.878;18.040;2023-04-06T02:30:29;98587.13;;;1.33;45.34
49297;BME280;35163;48.878;18.040;2023-04-06T02:33:00;98582.00;;;1.28;45.91
49297;BME280;35163;48.878;18.040;2023-04-06T02:35:30;98585.34;;;1.26;45.70
49297;BME280;35163;48.878;18.040;2023-04-06T02:37:57;98577.69;;;1.23;46.06
49297;BME280;35163;48.878;18.040;2023-04-06T02:40:24;98584.44;;;1.17;46.43
49297;BME280;35163;48.878;18.040;2023-04-06T02:42:51;98580.22;;;1.19;45.88
49297;BME280;35163;48.878;18.040;2023-04-06T02:45:18;98575.09;;;1.16;46.16
49297;BME280;35163;48.878;18.040;2023-04-06T02:47:44;98581.88;;;1.14;47.10
49297;BME280;35163;48.878;18.040;2023-04-06T02:50:11;98580.22;;;1.18;46.22
49297;BME280;35163;48.878;18.040;2023-04-06T02:52:38;98576.81;;;1.19;46.17
49297;BME280;35163;48.878;18.040;2023-04-06T02:55:05;98571.69;;;1.14;47.10
49297;BME280;35163;48.878;18.040;2023-04-06T02:57:36;98578.47;;;1.14;46.46
49297;BME280;35163;48.878;18.040;2023-04-06T03:00:03;98573.31;;;1.09;47.16
49297;BME280;35163;48.878;18.040;2023-04-06T03:02:29;98574.09;;;1.02;46.41
49297;BME280;35163;48.878;18.040;2023-04-06T03:04:56;98583.50;;;1.07;47.28
49297;BME280;35163;48.878;18.040;2023-04-06T03:07:23;98572.44;;;1.07;46.33
49297;BME280;35163;48.878;18.040;2023-04-06T03:09:50;98568.97;;;0.99;46.68
49297;BME280;35163;48.878;18.040;2023-04-06T03:12:16;98569.00;;;1.02;46.86
49297;BME280;35163;48.878;18.040;2023-04-06T03:14:43;98567.34;;;1.05;47.42
49297;BME280;35163;48.878;18.040;2023-04-06T03:17:10;98567.34;;;1.04;46.63
49297;BME280;35163;48.878;18.040;2023-04-06T03:19:36;98568.22;;;1.06;46.65
49297;BME280;35163;48.878;18.040;2023-04-06T03:22:03;98569.09;;;1.09;47.52
49297;BME280;35163;48.878;18.040;2023-04-06T03:24:30;98567.34;;;1.04;46.42
49297;BME280;35163;48.878;18.040;2023-04-06T03:26:56;98569.00;;;1.02;47.82
49297;BME280;35163;48.878;18.040;2023-04-06T03:29:23;98558.78;;;0.99;47.05
49297;BME280;35163;48.878;18.040;2023-04-06T03:31:49;98558.78;;;0.95;47.28
49297;BME280;35163;48.878;18.040;2023-04-06T03:34:16;98557.06;;;0.94;47.71
49297;BME280;35163;48.878;18.040;2023-04-06T03:36:43;98562.19;;;0.98;47.68
49297;BME280;35163;48.878;18.040;2023-04-06T03:39:09;98569.84;;;0.98;46.88
49297;BME280;35163;48.878;18.040;2023-04-06T03:41:36;98563.00;;;0.95;46.74
49297;BME280;35163;48.878;18.040;2023-04-06T03:44:03;98567.25;;;0.94;47.59
49297;BME280;35163;48.878;18.040;2023-04-06T03:46:30;98557.91;;;0.95;47.53
49297;BME280;35163;48.878;18.040;2023-04-06T03:48:56;98566.41;;;0.97;47.85
49297;BME280;35163;48.878;18.040;2023-04-06T03:51:23;98561.31;;;0.95;47.78
49297;BME280;35163;48.878;18.040;2023-04-06T03:53:51;98563.00;;;0.95;48.10
49297;BME280;35163;48.878;18.040;2023-04-06T03:56:18;98564.66;;;0.93;47.71
49297;BME280;35163;48.878;18.040;2023-04-06T03:58:44;98562.94;;;0.89;48.08
49297;BME280;35163;48.878;18.040;2023-04-06T04:01:11;98563.78;;;0.88;48.38
49297;BME280;35163;48.878;18.040;2023-04-06T04:03:38;98562.94;;;0.87;48.35
49297;BME280;35163;48.878;18.040;2023-04-06T04:06:05;98564.56;;;0.80;49.33
49297;BME280;35163;48.878;18.040;2023-04-06T04:08:32;98565.44;;;0.82;48.41
49297;BME280;35163;48.878;18.040;2023-04-06T04:10:58;98571.03;;;0.52;49.67
49297;BME280;35163;48.878;18.040;2023-04-06T04:13:25;98566.00;;;0.56;49.79
49297;BME280;35163;48.878;18.040;2023-04-06T04:15:52;98573.69;;;0.59;49.56
49297;BME280;35163;48.878;18.040;2023-04-06T04:18:19;98571.94;;;0.57;49.44
49297;BME280;35163;48.878;18.040;2023-04-06T04:20:46;98575.31;;;0.56;49.86
49297;BME280;35163;48.878;18.040;2023-04-06T04:23:12;98576.16;;;0.53;49.42
49297;BME280;35163;48.878;18.040;2023-04-06T04:25:40;98577.84;;;0.54;49.22
49297;BME280;35163;48.878;18.040;2023-04-06T04:28:07;98580.53;;;0.65;49.18
49297;BME280;35163;48.878;18.040;2023-04-06T04:30:36;98580.47;;;0.62;50.12
49297;BME280;35163;48.878;18.040;2023-04-06T04:33:03;98578.88;;;0.70;49.45
49297;BME280;35163;48.878;18.040;2023-04-06T04:35:29;98581.47;;;0.72;49.18
49297;BME280;35163;48.878;18.040;2023-04-06T04:37:56;98579.78;;;0.76;49.19
49297;BME280;35163;48.878;18.040;2023-04-06T04:40:23;98579.88;;;0.83;49.08
49297;BME280;35163;48.878;18.040;2023-04-06T04:42:52;98575.66;;;0.84;49.05
49297;BME280;35163;48.878;18.040;2023-04-06T04:45:22;98585.00;;;0.87;49.65
49297;BME280;35163;48.878;18.040;2023-04-06T04:47:48;98581.56;;;0.83;48.80
49297;BME280;35163;48.878;18.040;2023-04-06T04:50:15;98579.94;;;0.93;49.22
49297;BME280;35163;48.878;18.040;2023-04-06T04:52:42;98578.22;;;0.89;49.92
49297;BME280;35163;48.878;18.040;2023-04-06T04:55:08;98575.69;;;0.90;48.99
49297;BME280;35163;48.878;18.040;2023-04-06T04:57:35;98570.59;;;0.90;49.40
49297;BME280;35163;48.878;18.040;2023-04-06T05:00:02;98583.34;;;0.93;50.50
49297;BME280;35163;48.878;18.040;2023-04-06T05:02:29;98575.75;;;0.96;49.57
49297;BME280;35163;48.878;18.040;2023-04-06T05:04:56;98579.13;;;0.94;50.19
49297;BME280;35163;48.878;18.040;2023-04-06T05:07:23;98574.06;;;0.99;49.91
49297;BME280;35163;48.878;18.040;2023-04-06T05:09:50;98577.50;;;1.01;49.73
49297;BME280;35163;48.878;18.040;2023-04-06T05:12:18;98576.66;;;1.03;49.68
49297;BME280;35163;48.878;18.040;2023-04-06T05:14:45;98579.22;;;1.05;50.12
49297;BME280;35163;48.878;18.040;2023-04-06T05:17:12;98572.44;;;1.07;50.37
49297;BME280;35163;48.878;18.040;2023-04-06T05:19:38;98574.13;;;1.05;50.53
49297;BME280;35163;48.878;18.040;2023-04-06T05:22:05;98574.16;;;1.06;50.83
49297;BME280;35163;48.878;18.040;2023-04-06T05:24:32;98569.06;;;1.06;50.89
49297;BME280;35163;48.878;18.040;2023-04-06T05:26:58;98564.81;;;1.07;50.75
49297;BME280;35163;48.878;18.040;2023-04-06T05:29:26;98564.88;;;1.12;50.60
49297;BME280;35163;48.878;18.040;2023-04-06T05:31:53;98561.50;;;1.17;50.04
49297;BME280;35163;48.878;18.040;2023-04-06T05:34:19;98563.25;;;1.20;50.84
49297;BME280;35163;48.878;18.040;2023-04-06T05:36:48;98567.50;;;1.23;50.85
49297;BME280;35163;48.878;18.040;2023-04-06T05:39:15;98559.88;;;1.26;51.10
49297;BME280;35163;48.878;18.040;2023-04-06T05:41:45;98555.69;;;1.31;51.97
49297;BME280;35163;48.878;18.040;2023-04-06T05:44:12;98554.00;;;1.33;51.51
49297;BME280;35163;48.878;18.040;2023-04-06T05:46:39;98557.44;;;1.38;50.68
49297;BME280;35163;48.878;18.040;2023-04-06T05:49:05;98557.44;;;1.37;50.16
49297;BME280;35163;48.878;18.040;2023-04-06T05:51:32;98554.94;;;1.44;50.88
49297;BME280;35163;48.878;18.040;2023-04-06T05:53:59;98552.41;;;1.46;50.77
49297;BME280;35163;48.878;18.040;2023-04-06T05:56:25;98552.47;;;1.52;50.29
49297;BME280;35163;48.878;18.040;2023-04-06T05:58:52;98556.78;;;1.60;49.86
49297;BME280;35163;48.878;18.040;2023-04-06T06:01:21;98550.84;;;1.68;50.00
49297;BME280;35163;48.878;18.040;2023-04-06T06:03:48;98548.31;;;1.68;49.87
49297;BME280;35163;48.878;18.040;2023-04-06T06:06:14;98547.53;;;1.79;49.20
49297;BME280;35163;48.878;18.040;2023-04-06T06:08:44;98544.16;;;1.83;49.96
49297;BME280;35163;48.878;18.040;2023-04-06T06:11:10;98545.88;;;1.87;49.41
49297;BME280;35163;48.878;18.040;2023-04-06T06:13:37;98545.06;;;1.91;49.92
49297;BME280;35163;48.878;18.040;2023-04-06T06:16:04;98539.97;;;1.96;49.35
49297;BME280;35163;48.878;18.040;2023-04-06T06:18:31;98542.56;;;2.04;49.26
49297;BME280;35163;48.878;18.040;2023-04-06T06:20:58;98539.22;;;2.14;48.85
49297;BME280;35163;48.878;18.040;2023-04-06T06:23:25;98540.09;;;2.18;49.49
49297;BME280;35163;48.878;18.040;2023-04-06T06:25:52;98536.75;;;2.33;48.38
49297;BME280;35163;48.878;18.040;2023-04-06T06:28:19;98536.78;;;2.44;48.38
49297;BME280;35163;48.878;18.040;2023-04-06T06:30:46;98537.66;;;2.51;48.56
49297;BME280;35163;48.878;18.040;2023-04-06T06:33:12;98534.31;;;2.66;47.78
49297;BME280;35163;48.878;18.040;2023-04-06T06:35:39;98531.75;;;2.72;47.27
49297;BME280;35163;48.878;18.040;2023-04-06T06:38:06;98529.19;;;2.78;47.39
49297;BME280;35163;48.878;18.040;2023-04-06T06:40:33;98528.38;;;2.89;47.18
49297;BME280;35163;48.878;18.040;2023-04-06T06:43:00;98525.84;;;3.00;47.64
49297;BME280;35163;48.878;18.040;2023-04-06T06:45:27;98518.16;;;3.08;46.57
49297;BME280;35163;48.878;18.040;2023-04-06T06:47:55;98522.44;;;3.10;46.71
49297;BME280;35163;48.878;18.040;2023-04-06T06:50:22;98522.44;;;3.26;45.96
49297;BME280;35163;48.878;18.040;2023-04-06T06:52:52;98526.69;;;3.41;45.46
49297;BME280;35163;48.878;18.040;2023-04-06T06:55:18;98525.84;;;3.50;45.46
49297;BME280;35163;48.878;18.040;2023-04-06T06:57:47;98521.56;;;3.58;44.67
49297;BME280;35163;48.878;18.040;2023-04-06T07:00:14;98521.53;;;3.77;44.79
49297;BME280;35163;48.878;18.040;2023-04-06T07:02:41;98518.97;;;3.89;44.27
49297;BME280;35163;48.878;18.040;2023-04-06T07:05:08;98521.47;;;4.02;44.27
49297;BME280;35163;48.878;18.040;2023-04-06T07:07:52;98525.72;;;4.09;43.76
49297;BME280;35163;48.878;18.040;2023-04-06T07:10:18;98520.56;;;4.16;43.11
49297;BME280;35163;48.878;18.040;2023-04-06T07:12:45;98518.81;;;4.30;43.20
49297;BME280;35163;48.878;18.040;2023-04-06T07:15:12;98526.44;;;4.43;43.11
49297;BME280;35163;48.878;18.040;2023-04-06T07:17:39;98524.63;;;4.60;42.55
49297;BME280;35163;48.878;18.040;2023-04-06T07:20:08;98518.63;;;4.65;42.42
49297;BME280;35163;48.878;18.040;2023-04-06T07:22:35;98508.34;;;4.71;42.29
49297;BME280;35163;48.878;18.040;2023-04-06T07:25:02;98509.16;;;4.82;40.85
49297;BME280;35163;48.878;18.040;2023-04-06T07:27:28;98524.44;;;4.92;41.11
49297;BME280;35163;48.878;18.040;2023-04-06T07:29:55;98509.03;;;5.01;41.04
49297;BME280;35163;48.878;18.040;2023-04-06T07:32:22;98506.47;;;5.01;40.94
49297;BME280;35163;48.878;18.040;2023-04-06T07:34:48;98508.03;;;5.16;40.39
49297;BME280;35163;48.878;18.040;2023-04-06T07:37:15;98511.31;;;5.32;39.91
49297;BME280;35163;48.878;18.040;2023-04-06T07:39:42;98502.69;;;5.41;39.83
49297;BME280;35163;48.878;18.040;2023-04-06T07:42:09;98506.00;;;5.54;39.08
49297;BME280;35163;48.878;18.040;2023-04-06T07:44:36;98499.09;;;5.63;39.26
49297;BME280;35163;48.878;18.040;2023-04-06T07:47:03;98495.59;;;5.67;38.61
49297;BME280;35163;48.878;18.040;2023-04-06T07:49:29;98500.69;;;5.75;38.85
49297;BME280;35163;48.878;18.040;2023-04-06T07:51:56;98488.56;;;5.88;38.79
49297;BME280;35163;48.878;18.040;2023-04-06T07:54:23;98496.19;;;5.95;38.11
49297;BME280;35163;48.878;18.040;2023-04-06T07:56:50;98496.03;;;6.08;38.76
49297;BME280;35163;48.878;18.040;2023-04-06T07:59:17;98496.03;;;6.10;38.17
49297;BME280;35163;48.878;18.040;2023-04-06T08:01:44;98493.50;;;6.06;37.89
49297;BME280;35163;48.878;18.040;2023-04-06T08:04:11;98496.03;;;6.10;37.88
49297;BME280;35163;48.878;18.040;2023-04-06T08:06:38;98498.53;;;6.16;37.86
49297;BME280;35163;48.878;18.040;2023-04-06T08:09:04;98479.72;;;6.14;37.62
49297;BME280;35163;48.878;18.040;2023-04-06T08:11:31;98491.59;;;6.23;37.72
49297;BME280;35163;48.878;18.040;2023-04-06T08:13:58;98491.44;;;6.34;37.79
49297;BME280;35163;48.878;18.040;2023-04-06T08:16:24;98488.88;;;6.37;37.26
49297;BME280;35163;48.878;18.040;2023-04-06T08:18:51;98489.66;;;6.42;37.40
49297;BME280;35163;48.878;18.040;2023-04-06T08:21:18;98490.53;;;6.39;37.06
49297;BME280;35163;48.878;18.040;2023-04-06T08:23:44;98489.66;;;6.42;37.10
49297;BME280;35163;48.878;18.040;2023-04-06T08:26:12;98489.63;;;6.45;36.76
49297;BME280;35163;48.878;18.040;2023-04-06T08:28:39;98479.34;;;6.45;37.30
49297;BME280;35163;48.878;18.040;2023-04-06T08:31:06;98480.06;;;6.55;37.16
49297;BME280;35163;48.878;18.040;2023-04-06T08:33:33;98478.38;;;6.52;37.17
49297;BME280;35163;48.878;18.040;2023-04-06T08:36:12;98479.16;;;6.59;36.48
49297;BME280;35163;48.878;18.040;2023-04-06T08:38:40;98473.88;;;6.67;36.74
49297;BME280;35163;48.878;18.040;2023-04-06T08:41:11;98475.50;;;6.74;36.58
49297;BME280;35163;48.878;18.040;2023-04-06T08:46:10;98478.91;;;6.76;36.22
49297;BME280;35163;48.878;18.040;2023-04-06T08:48:42;98466.16;;;6.68;36.74
49297;BME280;35163;48.878;18.040;2023-04-06T08:51:10;98469.59;;;6.69;35.96
49297;BME280;35163;48.878;18.040;2023-04-06T08:53:38;98470.38;;;6.74;35.65
49297;BME280;35163;48.878;18.040;2023-04-06T08:56:05;98465.91;;;6.84;35.66
49297;BME280;35163;48.878;18.040;2023-04-06T08:58:35;98461.59;;;6.88;35.90
49297;BME280;35163;48.878;18.040;2023-04-06T09:01:09;98464.94;;;6.93;35.61
49297;BME280;35163;48.878;18.040;2023-04-06T09:03:38;98460.53;;;7.00;35.88
49297;BME280;35163;48.878;18.040;2023-04-06T09:06:07;98463.09;;;7.01;35.46
49297;BME280;35163;48.878;18.040;2023-04-06T09:08:35;98463.88;;;7.05;35.29
49297;BME280;35163;48.878;18.040;2023-04-06T09:11:02;98459.59;;;7.04;35.12
49297;BME280;35163;48.878;18.040;2023-04-06T09:13:30;98460.59;;;6.97;35.36
49297;BME280;35163;48.878;18.040;2023-04-06T09:16:04;98452.72;;;7.06;35.10
49297;BME280;35163;48.878;18.040;2023-04-06T09:18:33;98448.50;;;7.03;35.24
49297;BME280;35163;48.878;18.040;2023-04-06T09:21:05;98442.31;;;7.14;35.44
49297;BME280;35163;48.878;18.040;2023-04-06T09:23:32;98452.63;;;7.12;35.27
49297;BME280;35163;48.878;18.040;2023-04-06T09:26:17;98456.69;;;7.26;34.85
49297;BME280;35163;48.878;18.040;2023-04-06T09:28:46;98456.56;;;7.32;34.37
49297;BME280;35163;48.878;18.040;2023-04-06T09:31:15;98453.97;;;7.34;34.17
49297;BME280;35163;48.878;18.040;2023-04-06T09:33:44;98436.72;;;7.39;34.10
49297;BME280;35163;48.878;18.040;2023-04-06T09:36:11;98436.63;;;7.44;34.17
49297;BME280;35163;48.878;18.040;2023-04-06T09:38:52;98437.47;;;7.46;34.43
49297;BME280;35163;48.878;18.040;2023-04-06T09:41:30;98433.16;;;7.48;34.19
49297;BME280;35163;48.878;18.040;2023-04-06T09:44:07;98427.06;;;7.50;34.16
49297;BME280;35163;48.878;18.040;2023-04-06T09:46:36;98427.78;;;7.60;34.00
49297;BME280;35163;48.878;18.040;2023-04-06T09:49:21;98434.41;;;7.72;34.36
49297;BME280;35163;48.878;18.040;2023-04-06T09:51:54;98439.50;;;7.75;33.56
49297;BME280;35163;48.878;18.040;2023-04-06T09:54:22;98432.63;;;7.76;33.59
49297;BME280;35163;48.878;18.040;2023-04-06T09:57:11;98432.59;;;7.77;33.18
49297;BME280;35163;48.878;18.040;2023-04-06T10:00:08;98428.41;;;7.72;33.04
49297;BME280;35163;48.878;18.040;2023-04-06T10:03:02;98434.16;;;7.86;33.09
49297;BME280;35163;48.878;18.040;2023-04-06T10:05:55;98423.69;;;7.94;32.95
49297;BME280;35163;48.878;18.040;2023-04-06T10:08:27;98430.47;;;7.98;32.34
49297;BME280;35163;48.878;18.040;2023-04-06T10:10:58;98434.75;;;7.98;32.86
49297;BME280;35163;48.878;18.040;2023-04-06T10:13:25;98413.44;;;7.91;32.59
49297;BME280;35163;48.878;18.040;2023-04-06T10:15:54;98419.16;;;8.04;32.66
49297;BME280;35163;48.878;18.040;2023-04-06T10:18:21;98432.16;;;7.99;32.04
49297;BME280;35163;48.878;18.040;2023-04-06T10:20:56;98415.03;;;7.98;32.48
49297;BME280;35163;48.878;18.040;2023-04-06T10:23:33;98421.84;;;7.99;32.33
49297;BME280;35163;48.878;18.040;2023-04-06T10:26:01;98415.78;;;8.02;32.80
49297;BME280;35163;48.878;18.040;2023-04-06T10:28:35;98421.53;;;8.15;32.33
49297;BME280;35163;48.878;18.040;2023-04-06T10:31:05;98412.97;;;8.13;32.81
49297;BME280;35163;48.878;18.040;2023-04-06T10:33:33;98411.22;;;8.15;32.04
49297;BME280;35163;48.878;18.040;2023-04-06T10:36:13;98416.38;;;8.15;32.44
49297;BME280;35163;48.878;18.040;2023-04-06T10:38:41;98404.44;;;8.11;32.11
49297;BME280;35163;48.878;18.040;2023-04-06T10:41:10;98404.41;;;8.12;32.45
49297;BME280;35163;48.878;18.040;2023-04-06T10:43:39;98417.81;;;8.29;33.13
49297;BME280;35163;48.878;18.040;2023-04-06T10:46:07;98404.09;;;8.26;32.31
49297;BME280;35163;48.878;18.040;2023-04-06T10:51:11;98398.69;;;8.39;32.75
49297;BME280;35163;48.878;18.040;2023-04-06T10:53:42;98396.78;;;8.47;32.42
49297;BME280;35163;48.878;18.040;2023-04-06T10:56:17;98400.28;;;8.43;32.12
49297;BME280;35163;48.878;18.040;2023-04-06T10:58:47;98393.25;;;8.51;32.62
49297;BME280;35163;48.878;18.040;2023-04-06T11:01:19;98390.69;;;8.50;32.32
49297;BME280;35163;48.878;18.040;2023-04-06T11:03:51;98386.28;;;8.57;32.77
49297;BME280;35163;48.878;18.040;2023-04-06T11:06:22;98383.69;;;8.58;32.35
49297;BME280;35163;48.878;18.040;2023-04-06T11:08:54;98388.97;;;8.50;32.17
49297;BME280;35163;48.878;18.040;2023-04-06T11:11:24;98395.84;;;8.51;32.94
49297;BME280;35163;48.878;18.040;2023-04-06T11:13:54;98398.31;;;8.55;31.84
49297;BME280;35163;48.878;18.040;2023-04-06T11:16:31;98393.28;;;8.48;32.40
49297;BME280;35163;48.878;18.040;2023-04-06T11:19:02;98390.84;;;8.44;31.94
49297;BME280;35163;48.878;18.040;2023-04-06T11:24:16;98384.00;;;8.43;31.80
49297;BME280;35163;48.878;18.040;2023-04-06T11:26:46;98395.13;;;8.43;31.73
49297;BME280;35163;48.878;18.040;2023-04-06T11:29:19;98380.84;;;8.30;31.72
49297;BME280;35163;48.878;18.040;2023-04-06T11:31:51;98374.59;;;8.40;31.96
49297;BME280;35163;48.878;18.040;2023-04-06T11:34:22;98380.81;;;8.31;32.18
49297;BME280;35163;48.878;18.040;2023-04-06T11:36:55;98384.16;;;8.35;32.31
49297;BME280;35163;48.878;18.040;2023-04-06T11:39:25;98371.19;;;8.38;32.17
49297;BME280;35163;48.878;18.040;2023-04-06T11:41:54;98374.47;;;8.46;32.51
49297;BME280;35163;48.878;18.040;2023-04-06T11:44:34;98365.94;;;8.44;32.12
49297;BME280;35163;48.878;18.040;2023-04-06T11:47:06;98372.63;;;8.51;32.38
49297;BME280;35163;48.878;18.040;2023-04-06T11:49:37;98365.00;;;8.47;32.48
49297;BME280;35163;48.878;18.040;2023-04-06T11:54:44;98376.44;;;8.35;31.73
49297;BME280;35163;48.878;18.040;2023-04-06T11:57:11;98382.53;;;8.32;32.47
49297;BME280;35163;48.878;18.040;2023-04-06T11:59:38;98373.78;;;8.39;32.42
49297;BME280;35163;48.878;18.040;2023-04-06T12:02:05;98382.44;;;8.35;32.14
49297;BME280;35163;48.878;18.040;2023-04-06T12:04:32;98370.50;;;8.31;31.82
49297;BME280;35163;48.878;18.040;2023-04-06T12:06:59;98384.25;;;8.32;32.17
49297;BME280;35163;48.878;18.040;2023-04-06T12:09:25;98389.66;;;8.19;32.22
49297;BME280;35163;48.878;18.040;2023-04-06T12:11:52;98377.47;;;8.27;32.67
49297;BME280;35163;48.878;18.040;2023-04-06T12:14:19;98381.72;;;8.29;33.65
49297;BME280;35163;48.878;18.040;2023-04-06T12:16:46;98369.00;;;8.21;32.96
49297;BME280;35163;48.878;18.040;2023-04-06T12:19:13;98383.59;;;8.22;33.15
49297;BME280;35163;48.878;18.040;2023-04-06T12:21:40;98382.13;;;8.11;32.64
49297;BME280;35163;48.878;18.040;2023-04-06T12:24:06;98383.69;;;8.19;32.88
49297;BME280;35163;48.878;18.040;2023-04-06T12:26:34;98369.16;;;8.14;32.82
49297;BME280;35163;48.878;18.040;2023-04-06T12:29:01;98368.16;;;8.22;32.50
49297;BME280;35163;48.878;18.040;2023-04-06T12:31:36;98357.63;;;8.31;32.55
49297;BME280;35163;48.878;18.040;2023-04-06T12:34:05;98361.00;;;8.33;32.25
49297;BME280;35163;48.878;18.040;2023-04-06T12:36:31;98363.50;;;8.36;32.77
49297;BME280;35163;48.878;18.040;2023-04-06T12:38:58;98363.75;;;8.27;32.63
49297;BME280;35163;48.878;18.040;2023-04-06T12:41:27;98354.31;;;8.26;32.79
49297;BME280;35163;48.878;18.040;2023-04-06T12:43:54;98353.38;;;8.30;33.41
49297;BME280;35163;48.878;18.040;2023-04-06T12:46:21;98358.66;;;8.24;32.54
49297;BME280;35163;48.878;18.040;2023-04-06T12:48:48;98354.63;;;8.12;32.98
49297;BME280;35163;48.878;18.040;2023-04-06T12:51:15;98355.72;;;8.01;32.96
49297;BME280;35163;48.878;18.040;2023-04-06T12:53:43;98351.53;;;7.96;33.24
49297;BME280;35163;48.878;18.040;2023-04-06T12:56:16;98351.53;;;7.96;32.86
49297;BME280;35163;48.878;18.040;2023-04-06T12:58:44;98352.47;;;7.93;33.57
49297;BME280;35163;48.878;18.040;2023-04-06T13:01:11;98354.09;;;7.97;33.05
49297;BME280;35163;48.878;18.040;2023-04-06T13:03:40;98350.84;;;7.89;32.93
49297;BME280;35163;48.878;18.040;2023-04-06T13:06:07;98336.88;;;7.99;32.98
49297;BME280;35163;48.878;18.040;2023-04-06T13:08:38;98339.59;;;7.93;32.99
49297;BME280;35163;48.878;18.040;2023-04-06T13:11:06;98351.66;;;7.91;33.14
49297;BME280;35163;48.878;18.040;2023-04-06T13:13:36;98346.28;;;8.00;33.42
49297;BME280;35163;48.878;18.040;2023-04-06T13:16:05;98319.59;;;8.05;33.31